Nearby METAR Reports

 

KNFE - Fentress Naval, Virginia, USA
Distance from station: ENE 5mi, 7km
Updated: Thu, 02-Feb-2023 10:56pm EST
Overcast
Overcast
 Wind from calm
Wind: Calm
Temperature: 39°F , 4°C
Dew Point: 34°F , 1°C
Humidity: 81%
Barometer: 30.01 inHg , 1016.3 hPa
Clouds: Overcast
Visibility: 10 miles , 16 km
Cloud details: Few Clouds 800 ft
Overcast 11000 ft
2023/02/03 03:56 KNFE 030356Z AUTO 00000KT 10SM FEW008 OVC110 04/01 A3001 RMK AO2 SLP166 T00440011 $
KCPK - Chesapeake, Virginia, USA
Distance from station: W 6mi, 9km
Updated: Thu, 02-Feb-2023 11:15pm EST
Overcast
Overcast
 Wind from SW
Wind: SW 5 mph , 7 km/h
Temperature: 37°F , 3°C
Wind Chill: 33°F , 1°C
Dew Point: 36°F , 2°C
Humidity: 93%
Barometer: 30.02 inHg , 1016.6 hPa
Clouds: Overcast
Visibility: 10 miles , 16 km
Cloud details: Overcast 700 ft
2023/02/03 04:15 KCPK 030415Z AUTO 23004KT 10SM OVC007 03/02 A3002 RMK AO2 T00300015
 
KNTU - Oceana Nas/Souce, Virginia, USA
Distance from station: NE 14mi, 23km
Updated: Thu, 02-Feb-2023 10:56pm EST
Mostly cloudy
Mostly cloudy
 Wind from W
Wind: W 8 mph , 13 km/h
Temperature: 39°F , 4°C
Wind Chill: 33°F , 1°C
Dew Point: 36°F , 2°C
Humidity: 87%
Barometer: 30.00 inHg , 1015.9 hPa
Clouds: Mostly cloudy
Visibility: 10 miles , 16 km
Cloud details: Few Clouds 1000 ft
Mostly cloudy 12000 ft
2023/02/03 03:56 KNTU 030356Z 26007KT 10SM FEW010 BKN120 04/02 A3000 RMK AO2 SLP162 T00390017
KORF - Norfolk, Virginia, USA
Distance from station: N 15mi, 24km
Updated: Thu, 02-Feb-2023 10:51pm EST
Overcast
Overcast
 Wind from WSW
Wind: WSW 7 mph , 11 km/h
Temperature: 39°F , 4°C
Wind Chill: 34°F , 1°C
Dew Point: 36°F , 2°C
Humidity: 87%
Barometer: 30.00 inHg , 1015.9 hPa
Clouds: Overcast
Visibility: 10 miles , 16 km
Cloud details: Overcast 1000 ft
2023/02/03 03:51 KORF 030351Z 24006KT 10SM OVC010 04/02 A3000 RMK AO2 SLP160 T00390022 $
 
KPVG - Norfolk/Hampton, Virginia, USA
Distance from station: WNW 15mi, 24km
Updated: Thu, 02-Feb-2023 10:56pm EST
Overcast
Overcast
 Wind from WSW
Wind: WSW 5 mph , 7 km/h
Temperature: 37°F , 3°C
Wind Chill: 33°F , 1°C
Dew Point: 36°F , 2°C
Humidity: 93%
Barometer: 30.03 inHg , 1016.9 hPa
Clouds: Overcast
Visibility: 10 miles , 16 km
Cloud details: Overcast 700 ft
2023/02/03 03:56 KPVG 030356Z AUTO 24004KT 10SM OVC007 03/02 A3003 RMK AO2 SLP171 T00280022 400441017 PNO $
KNGU - Norfolk Nas/Cham, Virginia, USA
Distance from station: N 16mi, 26km
Updated: Thu, 02-Feb-2023 10:59pm EST
Overcast
Overcast
 Wind from WSW
Wind: WSW 6 mph , 9 km/h
Temperature: 39°F , 4°C
Wind Chill: 35°F , 2°C
Dew Point: 36°F , 2°C
Humidity: 87%
Barometer: 30.02 inHg , 1016.6 hPa
Clouds: Overcast
Visibility: 8 miles , 13 km
Cloud details: Mostly cloudy 1000 ft
Overcast 11000 ft
2023/02/03 03:59 KNGU 030359Z 25005KT 8SM BKN010 OVC110 04/02 A3002 RMK AO2 SLP166 T00440017
 
KSFQ - Suffolk, Virginia, USA
Distance from station: W 21mi, 34km
Updated: Thu, 02-Feb-2023 10:55pm EST
Overcast
Overcast
 Wind from SW
Wind: SW 7 mph , 11 km/h
Temperature: 39°F , 4°C
Wind Chill: 34°F , 1°C
Dew Point: 37°F , 3°C
Humidity: 93%
Barometer: 30.03 inHg , 1016.9 hPa
Clouds: Overcast
Visibility: 10 miles , 16 km
Cloud details: Overcast 700 ft
2023/02/03 03:55 KSFQ 030355Z AUTO 23006KT 10SM OVC007 04/03 A3003 RMK AO2 T00370030
KONX - Currituck, North Carolina, USA
Distance from station: SSE 22mi, 36km
Updated: Thu, 02-Feb-2023 10:45pm EST
Overcast
Overcast
 Wind from SW
Wind: SW 6 mph , 9 km/h
Temperature: 37°F , 3°C
Wind Chill: 32°F , 0°C
Dew Point: 37°F , 3°C
Humidity: 100%
Barometer: 30.01 inHg , 1016.3 hPa
Clouds: Overcast
Visibility: 10 miles , 16 km
Cloud details: Mostly cloudy 700 ft
Mostly cloudy 8000 ft
Overcast 10000 ft
2023/02/03 03:45 KONX 030345Z AUTO 22005KT 10SM BKN007 BKN080 OVC100 03/03 A3001 RMK AO2 T00340034
 
KLFI - Langley Afb/Hamp, Virginia, USA
Distance from station: NNW 28mi, 45km
Updated: Thu, 02-Feb-2023 10:55pm EST
Overcast
Overcast
 Wind from SSW
Wind: SSW 10 mph , 17 km/h
Temperature: 39°F , 4°C
Wind Chill: 32°F , 0°C
Dew Point: 39°F , 4°C
Humidity: 100%
Barometer: 30.01 inHg , 1016.3 hPa
Clouds: Overcast
Visibility: 10 miles , 16 km
Cloud details: Overcast 900 ft
2023/02/03 03:55 KLFI 030355Z 21009KT 10SM OVC009 04/04 A3001 RMK AO2A SLP169 T00380037 $
KECG - Elizabeth City, North Carolina, USA
Distance from station: S 29mi, 46km
Updated: Thu, 02-Feb-2023 10:54pm EST
Overcast
Overcast
 Wind from SW
Wind: SW 7 mph , 11 km/h
Temperature: 39°F , 4°C
Wind Chill: 34°F , 1°C
Dew Point: 37°F , 3°C
Humidity: 93%
Barometer: 30.02 inHg , 1016.6 hPa
Clouds: Overcast
Visibility: 8 miles , 13 km
Cloud details: Partly cloudy 600 ft
Overcast 9000 ft
2023/02/03 03:54 KECG 030354Z AUTO 23006KT 8SM SCT006 OVC090 04/03 A3002 RMK AO2 RAB03E46 SLP165 P0000 T00390028
 
KPHF - Newport News, Virginia, USA
Distance from station: NNW 35mi, 56km
Updated: Thu, 02-Feb-2023 11:05pm EST
Overcast
Overcast
 Wind from WSW
Wind: WSW 10 mph , 17 km/h
Temperature: 37°F , 3°C
Wind Chill: 30°F , -1°C
Dew Point: 36°F , 2°C
Humidity: 93%
Barometer: 30.00 inHg , 1015.9 hPa
Clouds: Overcast
Visibility: 10 miles , 16 km
Cloud details: Overcast 900 ft
2023/02/03 04:05 KPHF 030405Z AUTO 24009KT 10SM OVC009 03/02 A3000 RMK AO2 T00330022
KFAF - Ft Eustis/Felker, Virginia, USA
Distance from station: NW 37mi, 60km
Updated: Thu, 02-Feb-2023 9:55pm EST
NOT Current
Overcast
Overcast
 Wind from WSW
Wind: WSW 6 mph , 9 km/h
Temperature: 39°F , 4°C
Wind Chill: 35°F , 2°C
Dew Point: 36°F , 2°C
Humidity: 87%
Barometer: 30.00 inHg , 1015.9 hPa
Clouds: Overcast
Visibility: 10 miles , 16 km
Cloud details: Overcast 1300 ft
2023/02/03 02:55 KFAF 030255Z AUTO 24005KT 10SM OVC013 04/02 A3000 RMK AO2 SLP163 T00360018 58012 $
 
KFKN - Franklin/J B Ros, Virginia, USA
Distance from station: W 38mi, 61km
Updated: Thu, 02-Feb-2023 10:55pm EST
Overcast
Overcast
 Wind from calm
Wind: Calm
Temperature: 37°F , 3°C
Dew Point: 36°F , 2°C
Humidity: 93%
Barometer: 30.03 inHg , 1016.9 hPa
Clouds: Overcast
Visibility: 10 miles , 16 km
Cloud details: Overcast 700 ft
2023/02/03 03:55 KFKN 030355Z AUTO 00000KT 10SM OVC007 03/02 A3003 RMK AO2 T00320021
KJGG - Williamsburg, Virginia, USA
Distance from station: NW 47mi, 76km
Updated: Fri, 16-Dec-2022 12:35pm EST
NOT Current

 Wind from WNW
Wind: WNW 9 mph , 15 km/h, Gust: 17 mph , 28 km/h
Temperature: 55°F , 13°C
Dew Point: 37°F , 3°C
Humidity: 51%
Visibility: 10 miles , 16 km
2022/12/16 17:35 KJGG 161735Z AUTO 29008G15KT 10SM 13/03 RMK AO1
 
KAKQ - Norfolk/Wakefld, Virginia, USA
Distance from station: WNW 48mi, 78km
Updated: Thu, 02-Feb-2023 10:54pm EST
Overcast
Overcast
 Wind from SW
Wind: SW 5 mph , 7 km/h
Temperature: 39°F , 4°C
Wind Chill: 35°F , 2°C
Dew Point: 36°F , 2°C
Humidity: 87%
Barometer: 30.01 inHg , 1016.3 hPa
Clouds: Overcast
Visibility: 8 miles , 13 km
Cloud details: Overcast 600 ft
2023/02/03 03:54 KAKQ 030354Z AUTO 23004KT 8SM OVC006 04/02 A3001 RMK AO2 SLP164 T00390022
KEDE - Edenton, North Carolina, USA
Distance from station: SSW 50mi, 80km
Updated: Thu, 02-Feb-2023 10:55pm EST
Light rain, Overcast
Light rain, Overcast
 Wind from W
Wind: W 5 mph , 7 km/h
Temperature: 41°F , 5°C
Wind Chill: 38°F , 3°C
Dew Point: 41°F , 5°C
Humidity: 100%
Barometer: 30.05 inHg , 1017.6 hPa
Summary: Light rain
Clouds: Overcast
Visibility: 7 miles , 11 km
Cloud details: Mostly cloudy 600 ft
Mostly cloudy 2100 ft
Overcast 9000 ft
2023/02/03 03:55 KEDE 030355Z AUTO 27004KT 7SM -RA BKN006 BKN021 OVC090 05/05 A3005 RMK AO2 T00500050